Airport View

Enter AWOS ICAO identifier for current METAR.

ex. KFNL

K9L2 251558Z AUTO 24021G28KT 9SM CLR 15/07 A2985 RMK AO2 PK WND 24028/51 SLP097 T01460068 $

25 Oct 2020 16:31

Other Area AWOS: KEDW - KMHV - KWJF - KPMD

TAF AMD KEDW 241754Z 2418/2519 25012G20KT 9999 BKN200 QNH2989INS BECMG 2419/2420 25015G25KT 9999 BKN200 520009 QNH2989INS BECMG 2503/2504 25012G18KT 9999 BKN200 520009 QNH2987INS BECMG 2514/2515 25015G25KT 9999 BKN200 520009 QNH2985INS TX25/2422Z TN11/2513Z LAST NO AMDS AFT 2418 NEXT 2613